createdAt,value
2022-09-09T00:02:20.814Z,22.40
2022-09-09T00:07:33.838Z,22.40
2022-09-09T00:12:44.871Z,22.40
2022-09-09T00:17:55.179Z,22.50
2022-09-09T00:23:05.375Z,22.40
2022-09-09T00:28:19.708Z,22.40
2022-09-09T00:33:25.777Z,22.40
2022-09-09T00:38:36.614Z,22.40
2022-09-09T00:43:43.643Z,22.40
2022-09-09T00:48:54.012Z,22.40
2022-09-09T00:54:22.753Z,22.40
2022-09-09T00:59:37.262Z,22.40
2022-09-09T01:04:40.339Z,22.40
2022-09-09T01:09:57.390Z,22.40
2022-09-09T01:15:10.717Z,22.40
2022-09-09T01:20:20.140Z,22.40
2022-09-09T01:25:47.314Z,22.30
2022-09-09T01:30:52.020Z,22.30
2022-09-09T01:35:59.396Z,22.30
2022-09-09T01:41:02.810Z,22.30
2022-09-09T01:46:07.193Z,22.30
2022-09-09T01:51:11.402Z,22.30
2022-09-09T01:56:24.896Z,22.30
2022-09-09T02:01:43.799Z,22.30
2022-09-09T02:06:50.033Z,22.30
2022-09-09T02:12:02.263Z,22.30
2022-09-09T02:17:12.686Z,22.20
2022-09-09T02:22:17.459Z,22.30
2022-09-09T02:27:22.662Z,22.30
2022-09-09T02:32:27.178Z,22.30
2022-09-09T02:37:37.547Z,22.30
2022-09-09T02:42:44.913Z,22.30
2022-09-09T02:47:58.012Z,22.30
2022-09-09T02:53:11.071Z,22.30
2022-09-09T02:58:17.885Z,22.30
2022-09-09T03:03:23.050Z,22.20
2022-09-09T03:08:26.026Z,22.20
2022-09-09T03:13:29.396Z,22.20
2022-09-09T03:18:35.542Z,22.20
2022-09-09T03:23:38.647Z,22.20
2022-09-09T03:28:41.627Z,22.20
2022-09-09T03:33:45.951Z,22.20
2022-09-09T03:38:48.903Z,22.20
2022-09-09T03:43:52.279Z,22.20
2022-09-09T03:48:57.203Z,22.20
2022-09-09T03:54:00.155Z,22.20
2022-09-09T03:59:03.114Z,22.10
2022-09-09T04:04:07.460Z,22.20
2022-09-09T04:09:10.423Z,22.20
2022-09-09T04:14:13.744Z,22.20
2022-09-09T04:19:18.050Z,22.20
2022-09-09T04:24:21.203Z,22.20
2022-09-09T04:29:24.146Z,22.20
2022-09-09T04:34:29.351Z,22.30
2022-09-09T04:39:32.322Z,22.20
2022-09-09T04:44:35.309Z,22.30
2022-09-09T04:49:40.239Z,22.20
2022-09-09T04:54:43.163Z,22.30
2022-09-09T04:59:46.833Z,22.20
2022-09-09T05:04:51.594Z,22.20
2022-09-09T05:09:54.682Z,22.30
2022-09-09T05:14:57.621Z,22.30
2022-09-09T05:20:02.963Z,22.20
2022-09-09T05:25:08.766Z,22.30
2022-09-09T05:30:12.596Z,22.20
2022-09-09T05:35:17.367Z,22.30
2022-09-09T05:40:20.752Z,22.30
2022-09-09T05:45:23.751Z,22.30
2022-09-09T05:50:31.539Z,22.20
2022-09-09T05:55:34.891Z,22.20
2022-09-09T06:00:37.889Z,22.20
2022-09-09T06:05:42.239Z,22.30
2022-09-09T06:10:46.311Z,22.30
2022-09-09T06:15:53.227Z,22.20
2022-09-09T06:20:58.955Z,22.10
2022-09-09T06:26:07.014Z,22.00
2022-09-09T06:31:11.778Z,22.00
2022-09-09T06:36:18.973Z,21.90
2022-09-09T06:41:26.634Z,22.00
2022-09-09T06:46:31.118Z,22.00
2022-09-09T06:51:36.964Z,22.10
2022-09-09T06:56:42.993Z,22.10
2022-09-09T07:01:46.394Z,22.10
2022-09-09T07:06:51.189Z,22.20
2022-09-09T07:11:54.647Z,22.20
2022-09-09T07:16:59.854Z,22.20
2022-09-09T07:22:04.619Z,22.20
2022-09-09T07:27:07.627Z,22.20
2022-09-09T07:32:10.563Z,22.30
2022-09-09T07:37:15.138Z,22.30
2022-09-09T07:42:18.066Z,22.30
2022-09-09T07:47:21.103Z,22.30
2022-09-09T07:52:25.407Z,22.30
2022-09-09T07:57:28.527Z,22.40
2022-09-09T08:02:31.478Z,22.40
2022-09-09T08:07:36.010Z,22.40
2022-09-09T08:12:40.303Z,22.40
2022-09-09T08:17:48.186Z,22.40
2022-09-09T08:22:52.615Z,22.50
2022-09-09T08:27:56.783Z,22.40
2022-09-09T08:33:01.002Z,22.60
2022-09-09T08:38:08.911Z,22.60
2022-09-09T08:43:14.283Z,22.60
2022-09-09T08:48:31.676Z,22.70
2022-09-09T08:53:41.919Z,22.70
2022-09-09T08:58:49.810Z,22.80
2022-09-09T09:03:59.615Z,22.90
2022-09-09T09:09:10.141Z,22.90
2022-09-09T09:14:17.338Z,22.90
2022-09-09T09:19:23.738Z,23.00
2022-09-09T09:24:36.951Z,23.10
2022-09-09T09:30:04.151Z,23.10
2022-09-09T09:35:11.887Z,23.10
2022-09-09T09:40:18.836Z,23.10
2022-09-09T09:45:30.628Z,23.00
2022-09-09T09:50:35.571Z,23.00
2022-09-09T09:55:52.368Z,23.10
2022-09-09T10:00:56.063Z,23.10
2022-09-09T10:05:59.466Z,23.10
2022-09-09T10:11:28.050Z,23.10
2022-09-09T10:16:46.895Z,23.00
2022-09-09T10:22:04.369Z,23.00
2022-09-09T10:27:17.739Z,23.10
2022-09-09T10:32:43.610Z,23.10
2022-09-09T10:38:15.876Z,23.10
2022-09-09T10:43:29.954Z,23.10
2022-09-09T10:48:39.392Z,23.10
2022-09-09T10:53:53.856Z,23.10
2022-09-09T10:59:04.369Z,23.10
2022-09-09T11:04:17.877Z,23.10
2022-09-09T11:09:25.024Z,23.10
2022-09-09T11:14:37.565Z,23.10
2022-09-09T11:19:44.619Z,23.10
2022-09-09T11:24:52.865Z,23.20
2022-09-09T11:30:31.940Z,23.20
2022-09-09T11:36:04.419Z,23.10
2022-09-09T11:41:11.551Z,23.20
2022-09-09T11:46:18.377Z,23.20
2022-09-09T11:51:29.249Z,23.10
2022-09-09T11:56:33.470Z,23.20
2022-09-09T12:01:39.861Z,23.20
2022-09-09T12:06:47.563Z,23.20
2022-09-09T12:11:51.563Z,23.20
2022-09-09T12:16:55.961Z,23.20
2022-09-09T12:22:07.116Z,23.20
2022-09-09T12:27:18.062Z,23.20
2022-09-09T12:32:26.511Z,23.20
2022-09-09T12:37:35.203Z,23.20
2022-09-09T12:42:42.582Z,23.30
2022-09-09T12:47:50.414Z,23.30
2022-09-09T12:52:56.030Z,23.30
2022-09-09T12:58:01.138Z,23.30
2022-09-09T13:03:18.827Z,23.30
2022-09-09T13:08:22.428Z,23.30
2022-09-09T13:13:28.588Z,23.30
2022-09-09T13:18:35.870Z,23.30
2022-09-09T13:23:40.193Z,23.30
2022-09-09T13:28:43.132Z,23.30
2022-09-09T13:33:47.835Z,23.30
2022-09-09T13:38:57.884Z,23.30
2022-09-09T13:44:01.901Z,23.30
2022-09-09T13:49:23.343Z,23.30
2022-09-09T13:54:26.331Z,23.30
2022-09-09T13:59:48.024Z,23.30
2022-09-09T14:04:56.259Z,23.30
2022-09-09T14:10:01.221Z,23.30
2022-09-09T14:15:04.670Z,23.30
2022-09-09T14:20:11.115Z,23.20
2022-09-09T14:25:15.187Z,23.30
2022-09-09T14:30:18.302Z,23.30
2022-09-09T14:35:23.204Z,23.30
2022-09-09T14:40:26.305Z,23.20
2022-09-09T14:45:29.400Z,23.30
2022-09-09T14:50:35.784Z,23.20
2022-09-09T14:55:39.863Z,23.20
2022-09-09T15:00:42.799Z,23.20
2022-09-09T15:05:47.110Z,23.20
2022-09-09T15:10:51.072Z,23.10
2022-09-09T15:15:55.243Z,23.10
2022-09-09T15:20:59.582Z,23.10
2022-09-09T15:26:02.898Z,23.00
2022-09-09T15:31:09.256Z,23.00
2022-09-09T15:36:18.491Z,23.00
2022-09-09T15:41:22.654Z,23.00
2022-09-09T15:46:31.203Z,23.00
2022-09-09T15:51:43.167Z,23.00
2022-09-09T15:56:49.758Z,23.10
2022-09-09T16:01:52.916Z,23.10
2022-09-09T16:06:59.627Z,23.10
2022-09-09T16:12:03.983Z,23.10
2022-09-09T16:17:08.197Z,23.20
2022-09-09T16:22:12.497Z,23.10
2022-09-09T16:27:15.953Z,23.10
2022-09-09T16:32:18.887Z,23.10
2022-09-09T16:37:23.171Z,23.20
2022-09-09T16:42:26.098Z,23.10
2022-09-09T16:47:30.310Z,23.10
2022-09-09T16:52:34.621Z,23.10
2022-09-09T16:57:37.612Z,23.00
2022-09-09T17:02:40.653Z,23.00
2022-09-09T17:07:45.463Z,23.00
2022-09-09T17:12:48.397Z,23.00
2022-09-09T17:17:54.529Z,23.00
2022-09-09T17:22:58.844Z,22.90
2022-09-09T17:28:03.438Z,23.00
2022-09-09T17:33:07.881Z,22.90
2022-09-09T17:38:13.131Z,22.90
2022-09-09T17:43:17.038Z,22.80
2022-09-09T17:48:19.971Z,22.70
2022-09-09T17:53:24.318Z,22.70
2022-09-09T17:58:27.246Z,22.60
2022-09-09T18:03:30.230Z,22.60
2022-09-09T18:08:36.870Z,22.60
2022-09-09T18:13:40.027Z,22.50
2022-09-09T18:18:43.795Z,22.50
2022-09-09T18:23:49.503Z,22.50
2022-09-09T18:28:54.454Z,22.50
2022-09-09T18:34:00.394Z,22.40
2022-09-09T18:39:06.231Z,22.30
2022-09-09T18:44:16.126Z,22.20
2022-09-09T18:49:19.435Z,22.10
2022-09-09T18:54:26.028Z,22.10
2022-09-09T18:59:29.840Z,22.00
2022-09-09T19:04:33.688Z,22.00
2022-09-09T19:09:38.042Z,21.90
2022-09-09T19:14:41.358Z,21.80
2022-09-09T19:19:44.330Z,21.80
2022-09-09T19:24:49.093Z,21.70
2022-09-09T19:29:56.361Z,21.60
2022-09-09T19:34:59.918Z,21.60
2022-09-09T19:40:06.719Z,21.60
2022-09-09T19:45:10.757Z,21.50
2022-09-09T19:50:13.691Z,21.40
2022-09-09T19:55:18.478Z,21.40
2022-09-09T20:00:21.462Z,21.30
2022-09-09T20:05:24.813Z,21.30
2022-09-09T20:10:29.226Z,21.40
2022-09-09T20:15:32.241Z,21.30
2022-09-09T20:20:35.219Z,21.30
2022-09-09T20:25:39.559Z,21.30
2022-09-09T20:30:42.486Z,21.30
2022-09-09T20:35:45.675Z,21.20
2022-09-09T20:40:50.935Z,21.20
2022-09-09T20:45:57.498Z,21.20
2022-09-09T20:51:05.282Z,21.20
2022-09-09T20:56:10.518Z,21.30
2022-09-09T21:01:17.063Z,21.30
2022-09-09T21:06:20.740Z,21.20
2022-09-09T21:11:25.146Z,21.30
2022-09-09T21:16:28.866Z,21.40
2022-09-09T21:21:31.806Z,21.60
2022-09-09T21:26:36.530Z,21.60
2022-09-09T21:31:39.678Z,21.70
2022-09-09T21:36:42.637Z,21.70
2022-09-09T21:41:47.606Z,21.80
2022-09-09T21:46:50.646Z,21.80
2022-09-09T21:51:53.667Z,21.90
2022-09-09T21:56:58.048Z,21.90
2022-09-09T22:02:01.080Z,21.90
2022-09-09T22:07:04.230Z,21.80
2022-09-09T22:12:08.763Z,21.90
2022-09-09T22:17:12.166Z,21.90
2022-09-09T22:22:15.165Z,21.90
2022-09-09T22:27:19.757Z,21.90
2022-09-09T22:32:22.724Z,21.90
2022-09-09T22:37:26.256Z,21.90
2022-09-09T22:42:30.564Z,21.90
2022-09-09T22:47:34.498Z,21.90
2022-09-09T22:52:37.460Z,21.90
2022-09-09T22:57:42.094Z,21.90
2022-09-09T23:02:45.086Z,21.90
2022-09-09T23:07:48.598Z,21.90
2022-09-09T23:12:53.406Z,21.90
2022-09-09T23:17:56.630Z,21.90
2022-09-09T23:23:00.614Z,21.90
2022-09-09T23:28:05.331Z,21.90
2022-09-09T23:33:08.271Z,21.90
2022-09-09T23:38:11.487Z,21.90
2022-09-09T23:43:15.784Z,21.90
2022-09-09T23:48:19.111Z,21.90
2022-09-09T23:53:22.379Z,21.90
2022-09-09T23:58:26.855Z,21.90
